X  Cerrar Datos meteorológicos de aviación METAR     EDDK Cologne Bonn Airport
Temperatura
13°C Temperatura
11°C Punto de rocío
88% Humedad



Viento
5 KM/H
3 MPH
1 M/S
3 NUDO



80°
E
Condiciones actuales

Claro Claro
Presión 1021 (hPa) - 30.15 (inHg)
Visibilidad 6 (milla) - 9.7 (km)
Aeropuerto
Código de aeropuerto EDDK

localidad: Cologne Bonn Airport
Distancia: 56 (km)

Metar:
EDDK 192250Z AUTO 08003KT 050V150 CAVOK 13/11 Q1021 NOSIG

Hora: 2024-06-20 00:50 CEST